Central, Louisiana
Current Conditions -  °F | °C
As of 7:53 PM on Sunday 25 Jan 2015 (Local Time) from KBTR Reporting Station
Clear Clear  
Wind Chill: 53°   Ceiling: Unl
Heat Index: 53°   Visibility: 10mi
Dew Point: 43°   Wind: 6mph
Humidity: 69%   Direction: 260°W
Pressure: 29.93"   Gusts: NA
Location:  30.55°N, 91.04°W
Report Text: KBTR 260153Z 26005KT 10SM CLR 12/06 A2993 RMK AO2 SLP133 T01170061
Loading
Personal Weather Stations






























Interactive Weather Map New forecast layout! Learn more

10-Day Weather Forecast

Advertisements
Track Severe Weather on mobile